createdAt,value
2022-10-22T00:02:21.497Z,22.70
2022-10-22T00:04:52.527Z,22.70
2022-10-22T00:07:22.724Z,22.70
2022-10-22T00:09:52.286Z,22.70
2022-10-22T00:12:22.240Z,22.80
2022-10-22T00:14:52.596Z,22.80
2022-10-22T00:17:22.503Z,22.80
2022-10-22T00:19:52.145Z,22.80
2022-10-22T00:22:21.714Z,22.80
2022-10-22T00:24:51.915Z,22.90
2022-10-22T00:27:21.402Z,22.90
2022-10-22T00:29:50.876Z,22.90
2022-10-22T00:32:20.386Z,22.90
2022-10-22T00:34:49.942Z,23.00
2022-10-22T00:37:19.423Z,23.00
2022-10-22T00:39:49.081Z,23.00
2022-10-22T00:42:24.992Z,23.00
2022-10-22T00:45:19.218Z,23.00
2022-10-22T00:48:03.691Z,23.10
2022-10-22T00:50:57.154Z,23.10
2022-10-22T00:53:41.599Z,23.20
2022-10-22T00:56:12.046Z,23.20
2022-10-22T00:58:49.383Z,23.20
2022-10-22T01:01:30.871Z,23.20
2022-10-22T01:04:01.006Z,23.20
2022-10-22T01:06:34.154Z,23.30
2022-10-22T01:09:24.514Z,23.30
2022-10-22T01:12:29.899Z,23.30
2022-10-22T01:15:25.688Z,23.30
2022-10-22T01:18:20.106Z,23.30
2022-10-22T01:21:02.707Z,23.40
2022-10-22T01:24:09.319Z,23.40
2022-10-22T01:27:04.559Z,23.40
2022-10-22T01:29:45.864Z,23.50
2022-10-22T01:32:25.110Z,23.50
2022-10-22T01:34:59.382Z,23.50
2022-10-22T01:37:32.718Z,23.60
2022-10-22T01:40:04.392Z,23.70
2022-10-22T01:42:33.949Z,23.70
2022-10-22T01:45:03.444Z,23.80
2022-10-22T01:48:07.419Z,23.80
2022-10-22T01:51:07.771Z,23.90
2022-10-22T01:54:13.676Z,24.00
2022-10-22T01:57:20.704Z,24.10
2022-10-22T02:00:11.483Z,24.20
2022-10-22T02:03:05.933Z,24.30
2022-10-22T02:05:51.138Z,24.40
2022-10-22T02:08:25.403Z,24.50
2022-10-22T02:10:55.568Z,24.60
2022-10-22T02:13:33.193Z,24.60
2022-10-22T02:16:03.666Z,24.70
2022-10-22T02:18:38.820Z,24.70
2022-10-22T02:21:10.429Z,24.80
2022-10-22T02:23:41.484Z,24.80
2022-10-22T02:26:35.173Z,24.80
2022-10-22T02:29:22.652Z,24.90
2022-10-22T02:31:55.353Z,25.00
2022-10-22T02:34:29.750Z,25.00
2022-10-22T02:37:01.505Z,25.10
2022-10-22T02:39:33.301Z,25.10
2022-10-22T02:42:04.742Z,25.20
2022-10-22T02:44:34.689Z,25.30
2022-10-22T02:47:04.512Z,25.30
2022-10-22T02:49:34.387Z,25.40
2022-10-22T02:52:04.276Z,25.50
2022-10-22T02:54:34.492Z,25.60
2022-10-22T02:57:04.426Z,25.70
2022-10-22T02:59:35.732Z,25.80
2022-10-22T03:02:05.572Z,25.90
2022-10-22T03:04:35.378Z,25.90
2022-10-22T03:07:05.391Z,26.00
2022-10-22T03:09:35.233Z,26.00
2022-10-22T03:12:05.084Z,26.10
2022-10-22T03:14:34.949Z,26.10
2022-10-22T03:17:04.851Z,26.10
2022-10-22T03:19:35.068Z,26.20
2022-10-22T03:22:10.399Z,26.20
2022-10-22T03:24:46.958Z,26.20
2022-10-22T03:27:19.412Z,26.20
2022-10-22T03:29:49.298Z,26.30
2022-10-22T03:32:18.804Z,26.30
2022-10-22T03:34:48.890Z,26.30
2022-10-22T03:37:18.773Z,26.40
2022-10-22T03:39:48.878Z,26.40
2022-10-22T03:42:18.984Z,26.50
2022-10-22T03:44:48.786Z,26.50
2022-10-22T03:47:18.372Z,26.70
2022-10-22T03:49:47.944Z,26.70
2022-10-22T03:52:17.535Z,26.80
2022-10-22T03:54:47.466Z,26.90
2022-10-22T03:57:17.525Z,26.90
2022-10-22T03:59:48.465Z,27.00
2022-10-22T04:02:17.917Z,27.00
2022-10-22T04:04:47.424Z,27.10
2022-10-22T04:07:17.246Z,27.10
2022-10-22T04:09:46.707Z,27.20
2022-10-22T04:12:16.208Z,27.20
2022-10-22T04:14:45.898Z,27.20
2022-10-22T04:17:15.484Z,27.40
2022-10-22T04:19:45.029Z,27.40
2022-10-22T04:22:15.520Z,27.50
2022-10-22T04:24:45.488Z,27.60
2022-10-22T04:27:15.393Z,27.70
2022-10-22T04:29:45.230Z,27.80
2022-10-22T04:32:15.106Z,27.80
2022-10-22T04:34:44.924Z,27.90
2022-10-22T04:37:14.712Z,28.00
2022-10-22T04:39:44.594Z,28.00
2022-10-22T04:42:14.622Z,28.10
2022-10-22T04:44:44.759Z,28.10
2022-10-22T04:47:14.680Z,28.10
2022-10-22T04:49:44.487Z,28.10
2022-10-22T04:52:14.393Z,28.10
2022-10-22T04:54:44.323Z,28.20
2022-10-22T04:57:14.395Z,28.20
2022-10-22T04:59:44.340Z,28.30
2022-10-22T05:02:14.159Z,28.40
2022-10-22T05:04:46.508Z,28.40
2022-10-22T05:07:16.971Z,28.40
2022-10-22T05:09:46.765Z,28.30
2022-10-22T05:12:16.569Z,28.30
2022-10-22T05:14:46.366Z,28.20
2022-10-22T05:17:16.185Z,28.10
2022-10-22T05:19:46.149Z,28.10
2022-10-22T05:22:16.773Z,28.00
2022-10-22T05:24:46.336Z,28.00
2022-10-22T05:27:15.880Z,28.10
2022-10-22T05:29:45.461Z,28.10
2022-10-22T05:32:14.940Z,28.20
2022-10-22T05:34:44.426Z,28.20
2022-10-22T05:37:13.899Z,28.40
2022-10-22T05:39:43.403Z,28.40
2022-10-22T05:42:12.874Z,28.40
2022-10-22T05:44:42.599Z,28.40
2022-10-22T05:47:12.217Z,28.40
2022-10-22T05:49:41.728Z,28.40
2022-10-22T05:52:11.260Z,28.40
2022-10-22T05:54:41.028Z,28.50
2022-10-22T05:57:10.499Z,28.50
2022-10-22T05:59:40.244Z,28.60
2022-10-22T06:02:11.972Z,28.60
2022-10-22T06:04:41.609Z,28.60
2022-10-22T06:07:17.037Z,28.60
2022-10-22T06:09:46.573Z,28.60
2022-10-22T06:12:16.155Z,28.60
2022-10-22T06:14:45.798Z,28.60
2022-10-22T06:17:15.688Z,28.60
2022-10-22T06:19:45.320Z,28.60
2022-10-22T06:22:15.618Z,28.60
2022-10-22T06:24:45.397Z,28.50
2022-10-22T06:27:15.015Z,28.50
2022-10-22T06:29:44.492Z,28.50
2022-10-22T06:32:14.108Z,28.40
2022-10-22T06:34:43.670Z,28.40
2022-10-22T06:37:15.438Z,28.40
2022-10-22T06:39:44.975Z,28.40
2022-10-22T06:42:14.477Z,28.40
2022-10-22T06:44:44.013Z,28.40
2022-10-22T06:47:13.474Z,28.40
2022-10-22T06:49:43.306Z,28.40
2022-10-22T06:52:12.850Z,28.40
2022-10-22T06:54:42.363Z,28.40
2022-10-22T06:57:11.919Z,28.40
2022-10-22T06:59:41.403Z,28.40
2022-10-22T07:02:12.389Z,28.30
2022-10-22T07:04:41.878Z,28.30
2022-10-22T07:07:11.402Z,28.30
2022-10-22T07:09:41.128Z,28.30
2022-10-22T07:12:10.595Z,28.20
2022-10-22T07:14:40.429Z,28.20
2022-10-22T07:17:10.132Z,28.10
2022-10-22T07:19:39.703Z,28.10
2022-10-22T07:22:10.300Z,28.00
2022-10-22T07:24:40.216Z,27.90
2022-10-22T07:27:11.717Z,27.90
2022-10-22T07:29:41.352Z,27.90
2022-10-22T07:32:10.908Z,27.80
2022-10-22T07:34:41.833Z,27.80
2022-10-22T07:37:12.755Z,27.70
2022-10-22T07:39:42.280Z,27.70
2022-10-22T07:42:11.791Z,27.60
2022-10-22T07:44:41.301Z,27.60
2022-10-22T07:47:10.903Z,27.50
2022-10-22T07:49:40.404Z,27.50
2022-10-22T07:52:09.989Z,27.50
2022-10-22T07:54:39.448Z,27.40
2022-10-22T07:57:09.017Z,27.40
2022-10-22T07:59:38.578Z,27.40
2022-10-22T08:02:08.181Z,27.40
2022-10-22T08:04:37.792Z,27.30
2022-10-22T08:07:07.636Z,27.30
2022-10-22T08:09:37.154Z,27.30
2022-10-22T08:12:06.985Z,27.20
2022-10-22T08:14:36.480Z,27.20
2022-10-22T08:17:06.190Z,27.20
2022-10-22T08:19:37.006Z,27.20
2022-10-22T08:22:06.637Z,27.20
2022-10-22T08:24:37.286Z,27.10
2022-10-22T08:27:07.521Z,27.10
2022-10-22T08:29:37.445Z,27.10
2022-10-22T08:32:07.738Z,27.10
2022-10-22T08:34:37.585Z,27.00
2022-10-22T08:37:10.091Z,27.10
2022-10-22T08:39:39.900Z,27.00
2022-10-22T08:42:48.837Z,27.00
2022-10-22T08:45:32.783Z,27.00
2022-10-22T08:48:19.981Z,27.00
2022-10-22T08:50:53.614Z,26.90
2022-10-22T08:53:31.653Z,26.90
2022-10-22T08:56:01.762Z,26.90
2022-10-22T08:59:10.375Z,26.90
2022-10-22T09:01:44.934Z,26.90
2022-10-22T09:04:38.572Z,26.90
2022-10-22T09:07:10.371Z,26.80
2022-10-22T09:09:49.401Z,26.80
2022-10-22T09:12:20.592Z,26.80
2022-10-22T09:14:50.566Z,26.80
2022-10-22T09:17:46.341Z,26.80
2022-10-22T09:20:39.186Z,26.80
2022-10-22T09:23:41.482Z,26.80
2022-10-22T09:26:19.306Z,26.70
2022-10-22T09:28:53.055Z,26.80
2022-10-22T09:31:23.158Z,26.70
2022-10-22T09:33:53.664Z,26.70
2022-10-22T09:36:25.626Z,26.70
2022-10-22T09:38:57.362Z,26.70
2022-10-22T09:41:34.367Z,26.70
2022-10-22T09:44:04.180Z,26.70
2022-10-22T09:46:47.210Z,26.70
2022-10-22T09:49:24.898Z,26.70
2022-10-22T09:51:59.935Z,26.70
2022-10-22T09:54:44.916Z,26.70
2022-10-22T09:57:20.646Z,26.60
2022-10-22T09:59:57.059Z,26.60
2022-10-22T10:02:38.551Z,26.60
2022-10-22T10:05:10.162Z,26.60
2022-10-22T10:07:40.511Z,26.60
2022-10-22T10:10:29.832Z,26.60
2022-10-22T10:13:32.755Z,26.50
2022-10-22T10:16:29.096Z,26.50
2022-10-22T10:19:37.803Z,26.50
2022-10-22T10:22:32.655Z,26.40
2022-10-22T10:25:37.014Z,26.50
2022-10-22T10:28:23.815Z,26.40
2022-10-22T10:31:32.509Z,26.40
2022-10-22T10:34:31.829Z,26.40
2022-10-22T10:37:27.070Z,26.30
2022-10-22T10:40:14.227Z,26.40
2022-10-22T10:43:13.105Z,26.30
2022-10-22T10:46:11.581Z,26.20
2022-10-22T10:48:57.907Z,26.20
2022-10-22T10:52:06.586Z,26.20
2022-10-22T10:55:15.251Z,26.10
2022-10-22T10:58:23.941Z,26.20
2022-10-22T11:01:03.709Z,26.10
2022-10-22T11:04:01.306Z,26.10
2022-10-22T11:06:35.400Z,26.10
2022-10-22T11:09:27.862Z,26.10
2022-10-22T11:12:06.039Z,26.00
2022-10-22T11:15:01.446Z,26.00
2022-10-22T11:17:42.192Z,26.00
2022-10-22T11:20:32.371Z,26.00
2022-10-22T11:23:19.630Z,25.90
2022-10-22T11:25:52.426Z,26.00
2022-10-22T11:28:43.040Z,25.90
2022-10-22T11:31:17.866Z,25.90
2022-10-22T11:34:28.516Z,25.90
2022-10-22T11:36:57.481Z,25.90
2022-10-22T11:39:47.817Z,25.90
2022-10-22T11:42:36.161Z,25.80
2022-10-22T11:45:30.350Z,25.80
2022-10-22T11:48:20.433Z,25.80
2022-10-22T11:50:57.059Z,25.80
2022-10-22T11:53:40.464Z,25.80
2022-10-22T11:56:27.369Z,25.70
2022-10-22T11:58:58.311Z,25.70
2022-10-22T12:01:31.733Z,25.70
2022-10-22T12:04:24.001Z,25.70
2022-10-22T12:07:04.440Z,25.70
2022-10-22T12:09:36.043Z,25.70
2022-10-22T12:12:16.020Z,25.70
2022-10-22T12:15:23.042Z,25.60
2022-10-22T12:17:53.141Z,25.60
2022-10-22T12:20:28.047Z,25.50
2022-10-22T12:23:01.240Z,25.50
2022-10-22T12:25:36.066Z,25.50
2022-10-22T12:28:06.315Z,25.60
2022-10-22T12:30:36.686Z,25.50
2022-10-22T12:33:19.994Z,25.50
2022-10-22T12:35:53.055Z,25.50
2022-10-22T12:38:27.271Z,25.50
2022-10-22T12:40:59.585Z,25.50
2022-10-22T12:43:31.721Z,25.50
2022-10-22T12:46:01.865Z,25.50
2022-10-22T12:48:36.028Z,25.50
2022-10-22T12:51:09.765Z,25.40
2022-10-22T12:53:48.855Z,25.40
2022-10-22T12:56:32.098Z,25.40
2022-10-22T12:59:08.856Z,25.40
2022-10-22T13:01:42.040Z,25.40
2022-10-22T13:04:35.697Z,25.40
2022-10-22T13:07:24.813Z,25.40
2022-10-22T13:10:02.256Z,25.30
2022-10-22T13:12:39.399Z,25.30
2022-10-22T13:15:38.096Z,25.30
2022-10-22T13:18:28.651Z,25.30
2022-10-22T13:21:02.341Z,25.30
2022-10-22T13:23:36.056Z,25.30
2022-10-22T13:26:18.784Z,25.30
2022-10-22T13:28:57.976Z,25.20
2022-10-22T13:31:35.145Z,25.20
2022-10-22T13:34:13.018Z,25.20
2022-10-22T13:36:44.936Z,25.20
2022-10-22T13:39:23.762Z,25.10
2022-10-22T13:41:54.398Z,25.10
2022-10-22T13:44:24.297Z,25.10
2022-10-22T13:46:54.231Z,25.10
2022-10-22T13:49:27.276Z,25.10
2022-10-22T13:51:57.219Z,25.10
2022-10-22T13:54:27.870Z,25.10
2022-10-22T13:56:57.692Z,25.10
2022-10-22T13:59:27.488Z,25.10
2022-10-22T14:01:58.730Z,25.10
2022-10-22T14:04:28.607Z,25.10
2022-10-22T14:07:01.329Z,25.00
2022-10-22T14:09:33.525Z,25.00
2022-10-22T14:12:03.598Z,25.00
2022-10-22T14:14:33.375Z,25.00
2022-10-22T14:17:03.558Z,25.00
2022-10-22T14:19:33.806Z,25.00
2022-10-22T14:22:04.195Z,25.00
2022-10-22T14:24:34.879Z,25.00
2022-10-22T14:27:04.696Z,25.00
2022-10-22T14:29:34.514Z,25.00
2022-10-22T14:32:04.405Z,25.00
2022-10-22T14:34:34.307Z,24.90
2022-10-22T14:37:04.257Z,24.90
2022-10-22T14:39:34.083Z,24.90
2022-10-22T14:42:03.955Z,24.90
2022-10-22T14:44:33.808Z,24.90
2022-10-22T14:47:03.655Z,24.90
2022-10-22T14:49:33.480Z,24.90
2022-10-22T14:52:03.580Z,24.90
2022-10-22T14:54:34.800Z,24.90
2022-10-22T14:57:05.622Z,24.90
2022-10-22T14:59:35.411Z,24.90
2022-10-22T15:02:05.359Z,24.90
2022-10-22T15:04:35.178Z,24.90
2022-10-22T15:07:05.043Z,24.80
2022-10-22T15:09:34.916Z,24.80
2022-10-22T15:12:04.839Z,24.80
2022-10-22T15:14:34.725Z,24.80
2022-10-22T15:17:04.509Z,24.80
2022-10-22T15:19:34.435Z,24.80
2022-10-22T15:22:04.350Z,24.80
2022-10-22T15:24:35.715Z,24.80
2022-10-22T15:27:05.820Z,24.80
2022-10-22T15:29:35.774Z,24.80
2022-10-22T15:32:05.701Z,24.80
2022-10-22T15:34:37.479Z,24.80
2022-10-22T15:37:13.010Z,24.80
2022-10-22T15:39:44.111Z,24.80
2022-10-22T15:42:16.160Z,24.80
2022-10-22T15:44:46.501Z,24.70
2022-10-22T15:47:16.480Z,24.70
2022-10-22T15:49:46.586Z,24.70
2022-10-22T15:52:17.486Z,24.70
2022-10-22T15:54:47.663Z,24.70
2022-10-22T15:57:17.623Z,24.70
2022-10-22T15:59:48.580Z,24.60
2022-10-22T16:02:18.577Z,24.70
2022-10-22T16:04:48.570Z,24.60
2022-10-22T16:07:21.123Z,24.70
2022-10-22T16:09:57.284Z,24.60
2022-10-22T16:12:27.266Z,24.60
2022-10-22T16:14:57.079Z,24.60
2022-10-22T16:17:26.929Z,24.60
2022-10-22T16:19:57.319Z,24.60
2022-10-22T16:22:27.864Z,24.60
2022-10-22T16:24:57.325Z,24.50
2022-10-22T16:27:26.901Z,24.50
2022-10-22T16:29:56.435Z,24.60
2022-10-22T16:32:25.975Z,24.50
2022-10-22T16:34:55.441Z,24.50
2022-10-22T16:37:24.961Z,24.50
2022-10-22T16:39:54.613Z,24.50
2022-10-22T16:42:24.289Z,24.50
2022-10-22T16:44:53.771Z,24.50
2022-10-22T16:47:23.269Z,24.50
2022-10-22T16:49:53.011Z,24.50
2022-10-22T16:52:22.628Z,24.50
2022-10-22T16:54:52.095Z,24.50
2022-10-22T16:57:21.803Z,24.50
2022-10-22T16:59:51.489Z,24.50
2022-10-22T17:02:20.962Z,24.40
2022-10-22T17:04:50.757Z,24.50
2022-10-22T17:07:20.318Z,24.40
2022-10-22T17:09:49.986Z,24.40
2022-10-22T17:12:19.675Z,24.40
2022-10-22T17:14:49.231Z,24.40
2022-10-22T17:17:18.743Z,24.30
2022-10-22T17:19:48.501Z,24.40
2022-10-22T17:22:18.877Z,24.30
2022-10-22T17:24:48.384Z,24.30
2022-10-22T17:27:17.911Z,24.30
2022-10-22T17:29:47.443Z,24.30
2022-10-22T17:32:17.000Z,24.30
2022-10-22T17:34:46.527Z,24.30
2022-10-22T17:37:15.999Z,24.30
2022-10-22T17:39:45.626Z,24.30
2022-10-22T17:42:15.181Z,24.20
2022-10-22T17:44:44.641Z,24.30
2022-10-22T17:47:14.152Z,24.20
2022-10-22T17:49:43.871Z,24.20
2022-10-22T17:52:15.850Z,24.20
2022-10-22T17:54:45.770Z,24.20
2022-10-22T17:57:15.579Z,24.20
2022-10-22T17:59:45.116Z,24.10
2022-10-22T18:02:20.087Z,24.20
2022-10-22T18:04:53.914Z,24.10
2022-10-22T18:07:23.476Z,24.10
2022-10-22T18:09:53.126Z,24.10
2022-10-22T18:12:23.437Z,24.10
2022-10-22T18:14:53.011Z,24.10
2022-10-22T18:17:22.443Z,24.10
2022-10-22T18:19:52.039Z,24.10
2022-10-22T18:22:22.278Z,24.10
2022-10-22T18:24:51.761Z,24.10
2022-10-22T18:27:21.277Z,24.10
2022-10-22T18:29:52.655Z,24.00
2022-10-22T18:32:22.150Z,24.00
2022-10-22T18:34:51.647Z,24.00
2022-10-22T18:37:21.101Z,24.00
2022-10-22T18:39:51.568Z,24.00
2022-10-22T18:42:21.085Z,24.00
2022-10-22T18:44:53.069Z,24.00
2022-10-22T18:47:22.584Z,24.00
2022-10-22T18:49:53.411Z,24.00
2022-10-22T18:52:22.864Z,24.00
2022-10-22T18:54:52.359Z,24.00
2022-10-22T18:57:21.852Z,23.90
2022-10-22T18:59:52.781Z,23.90
2022-10-22T19:02:24.216Z,24.00
2022-10-22T19:04:53.767Z,23.90
2022-10-22T19:07:23.284Z,23.90
2022-10-22T19:09:52.866Z,23.90
2022-10-22T19:12:23.267Z,23.90
2022-10-22T19:14:53.446Z,23.90
2022-10-22T19:17:22.945Z,23.90
2022-10-22T19:19:52.518Z,23.90
2022-10-22T19:22:23.537Z,23.90
2022-10-22T19:24:53.405Z,23.90
2022-10-22T19:27:23.317Z,23.90
2022-10-22T19:29:53.286Z,23.90
2022-10-22T19:32:24.428Z,23.80
2022-10-22T19:34:56.216Z,23.80
2022-10-22T19:37:26.077Z,23.80
2022-10-22T19:39:55.926Z,23.80
2022-10-22T19:42:25.722Z,23.90
2022-10-22T19:44:55.593Z,23.80
2022-10-22T19:47:25.748Z,23.80
2022-10-22T19:49:55.590Z,23.80
2022-10-22T19:52:25.817Z,23.80
2022-10-22T19:54:55.756Z,23.80
2022-10-22T19:57:26.031Z,23.80
2022-10-22T19:59:55.872Z,23.80
2022-10-22T20:02:27.720Z,23.80
2022-10-22T20:04:57.613Z,23.80
2022-10-22T20:07:27.506Z,23.80
2022-10-22T20:09:57.649Z,23.80
2022-10-22T20:12:27.491Z,23.80
2022-10-22T20:14:57.401Z,23.80
2022-10-22T20:17:27.223Z,23.80
2022-10-22T20:19:58.352Z,23.80
2022-10-22T20:22:29.161Z,23.80
2022-10-22T20:24:59.078Z,23.80
2022-10-22T20:27:28.951Z,23.80
2022-10-22T20:29:58.802Z,23.80
2022-10-22T20:32:29.585Z,23.70
2022-10-22T20:34:59.374Z,23.70
2022-10-22T20:37:29.301Z,23.70
2022-10-22T20:39:59.137Z,23.70
2022-10-22T20:42:29.027Z,23.70
2022-10-22T20:44:58.794Z,23.70
2022-10-22T20:47:39.146Z,23.70
2022-10-22T20:50:19.783Z,23.70
2022-10-22T20:52:49.943Z,23.70
2022-10-22T20:55:20.097Z,23.70
2022-10-22T20:57:50.382Z,23.70
2022-10-22T21:00:20.355Z,23.60
2022-10-22T21:02:50.327Z,23.60
2022-10-22T21:05:20.278Z,23.60
2022-10-22T21:07:50.192Z,23.60
2022-10-22T21:10:20.082Z,23.60
2022-10-22T21:12:49.854Z,23.60
2022-10-22T21:15:19.782Z,23.70
2022-10-22T21:17:49.607Z,23.60
2022-10-22T21:20:22.318Z,23.60
2022-10-22T21:22:55.475Z,23.60
2022-10-22T21:25:25.357Z,23.70
2022-10-22T21:27:55.173Z,23.70
2022-10-22T21:30:25.168Z,23.70
2022-10-22T21:32:57.525Z,23.70
2022-10-22T21:35:27.998Z,23.70
2022-10-22T21:37:57.950Z,23.70
2022-10-22T21:40:29.195Z,23.70
2022-10-22T21:42:59.081Z,23.70
2022-10-22T21:45:28.912Z,23.60
2022-10-22T21:47:59.706Z,23.70
2022-10-22T21:50:29.576Z,23.70
2022-10-22T21:53:00.181Z,23.70
2022-10-22T21:55:30.037Z,23.70
2022-10-22T21:57:59.839Z,23.70
2022-10-22T22:00:29.757Z,23.70
2022-10-22T22:02:59.668Z,23.60
2022-10-22T22:05:30.984Z,23.70
2022-10-22T22:08:00.812Z,23.70
2022-10-22T22:10:31.706Z,23.60
2022-10-22T22:13:01.591Z,23.70
2022-10-22T22:15:33.201Z,23.60
2022-10-22T22:18:03.709Z,23.60
2022-10-22T22:20:33.545Z,23.60
2022-10-22T22:23:04.028Z,23.60
2022-10-22T22:25:33.476Z,23.60
2022-10-22T22:28:03.041Z,23.50
2022-10-22T22:30:32.511Z,23.50
2022-10-22T22:33:02.080Z,23.50
2022-10-22T22:35:32.066Z,23.50
2022-10-22T22:38:01.622Z,23.50
2022-10-22T22:40:33.083Z,23.50
2022-10-22T22:43:03.402Z,23.50
2022-10-22T22:45:32.986Z,23.50
2022-10-22T22:48:02.431Z,23.50
2022-10-22T22:50:32.300Z,23.50
2022-10-22T22:53:01.838Z,23.60
2022-10-22T22:55:33.665Z,23.50
2022-10-22T22:58:03.107Z,23.50
2022-10-22T23:00:32.682Z,23.50
2022-10-22T23:03:02.455Z,23.50
2022-10-22T23:05:32.225Z,23.50
2022-10-22T23:08:02.013Z,23.50
2022-10-22T23:10:31.492Z,23.50
2022-10-22T23:13:00.987Z,23.50
2022-10-22T23:15:30.592Z,23.50
2022-10-22T23:18:00.053Z,23.50
2022-10-22T23:20:29.531Z,23.40
2022-10-22T23:22:59.918Z,23.50
2022-10-22T23:25:30.293Z,23.40
2022-10-22T23:28:00.273Z,23.40
2022-10-22T23:30:30.155Z,23.40
2022-10-22T23:33:00.120Z,23.40
2022-10-22T23:35:31.723Z,23.40
2022-10-22T23:38:01.526Z,23.40
2022-10-22T23:40:31.427Z,23.40
2022-10-22T23:43:01.309Z,23.40
2022-10-22T23:45:31.217Z,23.50
2022-10-22T23:48:01.006Z,23.40
2022-10-22T23:50:30.977Z,23.40
2022-10-22T23:53:00.937Z,23.40
2022-10-22T23:55:30.760Z,23.40
2022-10-22T23:58:00.613Z,23.50
